KMSP

Minneapolis-St Paul International / Wold-Chamberlain Airport

Minneapolis, Minnesota, USA
METAR KMSP 212253Z VRB05KT 8SM FEW040 FEW090 23/11 A3013 RMK AO2 SLP199 TCU DSNT NE T02280106
Observed Flight Rules
Aug-21 @ 22:53 UTC (52 minutes ago) Visual Flight Rules
Wind Visibility Clouds
Variable at 5 knots 8 miles
  • Few at 4,000' AGL
  • Few at 9,000' AGL
Temperatures Readings
Current 23°C / 73°F
Dewpoint 11°C / 52°F
Humidity 47%
Altimeter 30.13" Hg
Pressure 1019.9 hPa
Elevation 265
METAR KMSP 212253Z VRB05KT 8SM FEW040 FEW090 23/11 A3013 RMK AO2 SLP199 TCU DSNT NE T02280106
Observed Flight Rules
Aug-21 @ 22:53 UTC
(52 minutes ago)
VFR
Wind Visibility
Variable at 5 knots 8 miles
Clouds
  • Few at 4,000' AGL
  • Few at 9,000' AGL
Temperature Dewpoint
23°C / 73°F 11°C / 52°F
Humidity Altimeter Pressure
47% 30.13" Hg 1019.9 hPa